Time;durP1;ratioP1;P1;durP2;ratioP2;P2;SDS_P1;SDS_P2;PMS_P1;PMS_P2;Temp;Humidity;BMP_temperature;BMP_pressure;BME280_temperature;BME280_humidity;BME280_pressure;Samples;Min_cycle;Max_cycle;Signal;HPM_P1;HPM_P2
2023/04/03 00:00:35;;;;;;;1999.90;999.90;;;3.40;99.90;;;;;;5060036;28;20090;-81
2023/04/03 00:03:00;;;;;;;1999.90;999.90;;;3.30;99.90;;;;;;5028562;28;20043;-80
2023/04/03 00:05:26;;;;;;;1999.90;999.90;;;3.30;99.90;;;;;;5051631;28;20040;-80
2023/04/03 00:07:52;;;;;;;1999.90;999.90;;;3.40;99.90;;;;;;5069527;28;20025;-79
2023/04/03 00:10:18;;;;;;;1999.90;999.90;;;3.40;99.90;;;;;;5062970;28;20371;-80
2023/04/03 00:12:44;;;;;;;1999.90;999.90;;;3.40;99.90;;;;;;5061025;28;20060;-80
2023/04/03 00:15:10;;;;;;;1999.90;999.90;;;3.30;99.90;;;;;;5057165;28;20032;-79
2023/04/03 00:17:36;;;;;;;1999.90;999.90;;;3.40;99.90;;;;;;5059571;28;20570;-79
2023/04/03 00:20:03;;;;;;;1999.90;999.90;;;3.20;99.90;;;;;;5060076;28;20060;-79
2023/04/03 00:22:30;;;;;;;1999.90;999.90;;;3.30;99.90;;;;;;5059499;28;20058;-82
2023/04/03 00:24:55;;;;;;;1999.90;999.90;;;3.10;99.90;;;;;;5062317;28;20029;-79
2023/04/03 00:27:21;;;;;;;1999.90;999.90;;;3.20;99.90;;;;;;5057871;28;20127;-79
2023/04/03 00:29:48;;;;;;;1999.90;999.90;;;3.20;99.90;;;;;;5059780;28;20037;-81
2023/04/03 00:32:14;;;;;;;1999.90;999.90;;;3.10;99.90;;;;;;5051349;28;20039;-80
2023/04/03 00:34:41;;;;;;;1999.90;999.90;;;3.10;99.90;;;;;;5054483;28;20120;-80
2023/04/03 00:37:07;;;;;;;1999.90;999.90;;;3.10;99.90;;;;;;5057031;28;20072;-79
2023/04/03 00:39:33;;;;;;;1999.90;999.90;;;3.20;99.90;;;;;;5058700;28;20057;-79
2023/04/03 00:41:59;;;;;;;1999.90;999.90;;;3.00;99.90;;;;;;5063675;28;20044;-80
2023/04/03 00:44:28;;;;;;;1999.90;999.90;;;3.10;99.90;;;;;;5056120;28;20070;-80
2023/04/03 00:46:53;;;;;;;1999.90;999.90;;;3.10;99.90;;;;;;5060528;28;20021;-80
2023/04/03 00:49:20;;;;;;;1999.90;999.90;;;3.10;99.90;;;;;;5045909;28;20067;-80
2023/04/03 00:51:46;;;;;;;1999.90;999.90;;;3.10;99.90;;;;;;5046655;28;20029;-81
2023/04/03 00:54:12;;;;;;;1999.90;999.90;;;3.00;99.90;;;;;;5038827;28;20024;-80
2023/04/03 00:56:39;;;;;;;1999.90;999.90;;;2.90;99.90;;;;;;5063819;28;20116;-80
2023/04/03 00:59:11;;;;;;;1999.90;999.90;;;3.10;99.90;;;;;;5055263;28;20060;-80
2023/04/03 01:01:38;;;;;;;1999.90;999.90;;;3.00;99.90;;;;;;5062694;28;20032;-80
2023/04/03 01:04:06;;;;;;;1999.90;999.90;;;3.00;99.90;;;;;;5039808;28;20025;-81
2023/04/03 01:06:36;;;;;;;1999.90;999.90;;;2.90;99.90;;;;;;5054871;28;20024;-80
2023/04/03 01:09:03;;;;;;;1999.90;999.90;;;2.90;99.90;;;;;;5052144;28;20025;-80
2023/04/03 01:11:29;;;;;;;1999.90;999.90;;;2.90;99.90;;;;;;5060833;28;20025;-81
2023/04/03 01:13:55;;;;;;;1999.90;999.90;;;2.90;99.90;;;;;;5053117;28;20040;-81
2023/04/03 01:16:21;;;;;;;1999.90;999.90;;;2.90;99.90;;;;;;5034619;28;20029;-80
2023/04/03 01:18:47;;;;;;;1999.90;999.90;;;2.70;99.90;;;;;;5044799;28;20120;-79
2023/04/03 01:21:12;;;;;;;1999.90;999.90;;;2.70;99.90;;;;;;5055914;28;20517;-79
2023/04/03 01:24:16;;;;;;;1999.90;999.90;;;2.80;99.90;;;;;;5062422;28;20383;-81
2023/04/03 01:26:42;;;;;;;1999.90;999.90;;;2.70;99.90;;;;;;5062578;28;20173;-80
2023/04/03 01:29:07;;;;;;;1999.90;999.90;;;2.70;99.90;;;;;;5060339;28;20503;-81
2023/04/03 01:31:53;;;;;;;1999.90;999.90;;;2.70;99.90;;;;;;5058067;28;20036;-79
2023/04/03 01:34:20;;;;;;;1999.90;999.90;;;2.80;99.90;;;;;;5065521;28;20031;-79
2023/04/03 01:36:46;;;;;;;1999.90;999.90;;;2.80;99.90;;;;;;5046542;28;20495;-82
2023/04/03 01:39:12;;;;;;;1999.90;999.90;;;2.70;99.90;;;;;;5060724;28;20029;-80
2023/04/03 01:41:40;;;;;;;1999.90;999.90;;;2.70;99.90;;;;;;5053967;28;20017;-80
2023/04/03 01:44:06;;;;;;;1999.90;999.90;;;2.60;99.90;;;;;;5054784;28;20029;-80
2023/04/03 01:46:31;;;;;;;1999.90;999.90;;;2.60;99.60;;;;;;5049456;28;20044;-80
2023/04/03 01:48:57;;;;;;;1999.90;999.90;;;2.70;99.50;;;;;;5055637;28;20033;-80
2023/04/03 01:51:23;;;;;;;1999.90;999.90;;;2.60;99.90;;;;;;5060495;28;20602;-79
2023/04/03 01:53:49;;;;;;;1999.90;999.90;;;2.50;99.90;;;;;;5057420;28;20591;-79
2023/04/03 01:56:16;;;;;;;1999.90;999.90;;;2.50;99.90;;;;;;5062979;28;20099;-81
2023/04/03 01:58:41;;;;;;;1999.90;999.90;;;2.30;99.60;;;;;;5044501;28;20025;-79
2023/04/03 02:01:07;;;;;;;1999.90;999.90;;;2.40;97.60;;;;;;5062541;28;20031;-80
2023/04/03 02:03:33;;;;;;;1999.90;999.90;;;2.30;99.90;;;;;;5054510;28;20052;-80
2023/04/03 02:06:01;;;;;;;1999.90;999.90;;;2.30;99.50;;;;;;5059392;28;20043;-79
2023/04/03 02:08:27;;;;;;;1999.90;999.90;;;2.30;99.90;;;;;;5045178;28;20060;-80
2023/04/03 02:10:53;;;;;;;1999.90;999.90;;;2.30;98.10;;;;;;5063529;28;20029;-79
2023/04/03 02:13:19;;;;;;;1999.90;999.90;;;2.40;99.60;;;;;;5054861;28;20052;-80
2023/04/03 02:15:45;;;;;;;1999.90;999.90;;;2.30;99.70;;;;;;5061376;28;20037;-80
2023/04/03 02:18:11;;;;;;;1999.90;999.90;;;2.20;99.60;;;;;;5061638;28;20025;-79
2023/04/03 02:20:36;;;;;;;1999.90;999.90;;;2.20;98.60;;;;;;5059377;28;20040;-81
2023/04/03 02:23:03;;;;;;;1999.90;999.90;;;2.30;97.90;;;;;;5057347;28;20052;-79
2023/04/03 02:25:30;;;;;;;1999.90;999.90;;;2.20;99.40;;;;;;5060249;28;20032;-80
2023/04/03 02:27:56;;;;;;;1999.90;999.90;;;2.10;95.90;;;;;;5058631;28;20029;-79
2023/04/03 02:30:22;;;;;;;1999.90;999.90;;;2.10;97.60;;;;;;5057885;28;20055;-80
2023/04/03 02:32:48;;;;;;;1999.90;999.90;;;2.10;96.80;;;;;;5053984;28;20067;-80
2023/04/03 02:35:13;;;;;;;1999.90;999.90;;;2.10;99.90;;;;;;5056225;28;20036;-79
2023/04/03 02:37:39;;;;;;;1999.90;999.90;;;2.00;99.90;;;;;;5061728;28;20039;-80
2023/04/03 02:40:06;;;;;;;1999.90;999.90;;;2.00;99.10;;;;;;5051854;28;20054;-80
2023/04/03 02:42:33;;;;;;;1999.90;999.90;;;2.00;99.60;;;;;;5036469;28;20037;-80
2023/04/03 02:45:00;;;;;;;1999.90;999.90;;;2.10;99.70;;;;;;5052107;28;20047;-80
2023/04/03 02:47:27;;;;;;;1999.90;999.90;;;2.00;99.70;;;;;;5048372;28;20080;-81
2023/04/03 02:49:52;;;;;;;1999.90;999.90;;;2.10;99.80;;;;;;5056813;28;20033;-79
2023/04/03 02:52:18;;;;;;;1999.90;999.90;;;2.10;97.10;;;;;;5054890;28;20549;-80
2023/04/03 02:54:44;;;;;;;1999.90;999.90;;;2.10;97.70;;;;;;5057395;28;20036;-79
2023/04/03 02:57:10;;;;;;;1999.90;999.90;;;2.10;99.90;;;;;;5058338;28;20087;-81
2023/04/03 02:59:41;;;;;;;1999.90;999.90;;;2.00;98.80;;;;;;5057540;28;20084;-80
2023/04/03 03:02:10;;;;;;;1999.90;999.90;;;2.00;99.80;;;;;;5061052;28;20495;-80
2023/04/03 03:04:36;;;;;;;1999.90;999.90;;;2.00;99.70;;;;;;5063757;28;20028;-80
2023/04/03 03:07:03;;;;;;;1999.90;999.90;;;2.00;98.90;;;;;;5058903;28;20021;-81
2023/04/03 03:09:29;;;;;;;1999.90;999.90;;;2.00;99.90;;;;;;5065019;28;20013;-79
2023/04/03 03:11:55;;;;;;;1999.90;999.90;;;2.00;99.50;;;;;;5053123;28;20025;-80
2023/04/03 03:14:21;;;;;;;1999.90;999.90;;;2.00;96.40;;;;;;5056164;28;20120;-79
2023/04/03 03:16:47;;;;;;;1999.90;999.90;;;1.80;99.30;;;;;;5048108;28;20048;-79
2023/04/03 03:19:13;;;;;;;1999.90;999.90;;;1.70;97.80;;;;;;5059549;28;20025;-80
2023/04/03 03:21:40;;;;;;;1999.90;999.90;;;1.70;98.10;;;;;;5061226;28;20676;-80
2023/04/03 03:24:06;;;;;;;1999.90;999.90;;;1.80;97.30;;;;;;5066410;28;20051;-80
2023/04/03 03:26:33;;;;;;;1999.90;999.90;;;1.80;98.30;;;;;;5088676;28;20502;-79
2023/04/03 03:28:59;;;;;;;1999.90;999.90;;;1.80;99.40;;;;;;5057698;28;20044;-80
2023/04/03 03:31:25;;;;;;;1999.90;999.90;;;1.70;99.90;;;;;;5062869;28;20036;-80
2023/04/03 03:33:52;;;;;;;1999.90;999.90;;;1.70;98.50;;;;;;5060572;28;20040;-81
2023/04/03 03:36:17;;;;;;;1999.90;999.90;;;1.70;95.90;;;;;;5037720;28;20053;-79
2023/04/03 03:38:43;;;;;;;1999.90;999.90;;;1.70;95.30;;;;;;5061320;28;20516;-78
2023/04/03 03:41:09;;;;;;;1999.90;999.90;;;1.80;96.60;;;;;;5062269;28;20128;-80
2023/04/03 03:43:35;;;;;;;1999.90;999.90;;;1.70;96.20;;;;;;5047015;28;20038;-82
2023/04/03 03:46:01;;;;;;;1999.90;999.90;;;1.80;96.10;;;;;;5062612;28;20398;-80
2023/04/03 03:48:27;;;;;;;1999.90;999.90;;;1.80;98.40;;;;;;5045940;28;20037;-83
2023/04/03 03:50:53;;;;;;;1999.90;999.90;;;1.70;95.40;;;;;;5070832;28;20487;-79
2023/04/03 03:53:19;;;;;;;1999.90;999.90;;;1.70;96.20;;;;;;5056829;28;20068;-81
2023/04/03 03:55:45;;;;;;;1999.90;999.90;;;1.50;97.50;;;;;;5060544;28;20044;-83
2023/04/03 03:58:14;;;;;;;1999.90;999.90;;;1.40;99.20;;;;;;5060452;28;20036;-80
2023/04/03 04:00:43;;;;;;;1999.90;999.90;;;1.50;99.90;;;;;;5060703;28;20066;-81
2023/04/03 04:03:10;;;;;;;1999.90;999.90;;;1.70;98.40;;;;;;5040603;28;20032;-82
2023/04/03 04:05:36;;;;;;;1999.90;999.90;;;1.70;98.40;;;;;;5062172;28;20065;-79
2023/04/03 04:08:03;;;;;;;1999.90;999.90;;;1.40;99.40;;;;;;5034600;28;20045;-82
2023/04/03 04:10:29;;;;;;;1999.90;999.90;;;1.50;99.10;;;;;;5043385;28;20029;-79
2023/04/03 04:12:54;;;;;;;1999.90;999.90;;;1.50;97.90;;;;;;5059426;28;20498;-79
2023/04/03 04:15:21;;;;;;;1999.90;999.90;;;1.50;98.00;;;;;;5057735;28;20033;-79
2023/04/03 04:17:47;;;;;;;1999.90;999.90;;;1.40;99.90;;;;;;5056892;28;20148;-79
2023/04/03 04:20:13;;;;;;;1999.90;999.90;;;1.30;99.90;;;;;;5066795;28;20028;-80
2023/04/03 04:22:40;;;;;;;1999.90;999.90;;;1.20;99.90;;;;;;5059162;28;20037;-81
2023/04/03 04:25:06;;;;;;;1999.90;999.90;;;1.40;99.90;;;;;;5051947;28;20124;-80
2023/04/03 04:27:32;;;;;;;1999.90;999.90;;;1.50;99.90;;;;;;5051366;28;20041;-80
2023/04/03 04:29:58;;;;;;;1999.90;999.90;;;1.40;99.90;;;;;;5045602;28;20056;-79
2023/04/03 04:32:24;;;;;;;1999.90;999.90;;;1.40;99.90;;;;;;5058861;28;20033;-80
2023/04/03 04:34:50;;;;;;;1999.90;999.90;;;1.50;99.90;;;;;;5056976;28;20032;-81
2023/04/03 04:37:16;;;;;;;1999.90;999.90;;;1.60;99.30;;;;;;5037738;28;20029;-79
2023/04/03 04:39:42;;;;;;;1999.90;999.90;;;1.50;99.80;;;;;;5030664;28;20495;-80
2023/04/03 04:42:12;;;;;;;1999.90;999.90;;;1.40;99.90;;;;;;5056075;28;20039;-80
2023/04/03 04:44:38;;;;;;;1999.90;999.90;;;1.40;98.10;;;;;;5054178;28;20025;-80
2023/04/03 04:47:04;;;;;;;1999.90;999.90;;;1.40;97.40;;;;;;5057565;28;20028;-80
2023/04/03 04:49:31;;;;;;;1999.90;999.90;;;1.40;99.60;;;;;;5061658;28;20403;-79
2023/04/03 04:51:57;;;;;;;1999.90;999.90;;;1.40;99.10;;;;;;5055456;28;20036;-79
2023/04/03 04:54:22;;;;;;;1999.90;999.90;;;1.50;99.30;;;;;;5048050;28;21369;-79
2023/04/03 04:56:48;;;;;;;1999.90;999.90;;;1.50;99.60;;;;;;5057575;28;20076;-79
2023/04/03 04:59:14;;;;;;;1999.90;999.90;;;1.50;99.90;;;;;;5047080;28;20044;-80
2023/04/03 05:01:40;;;;;;;1999.90;999.90;;;1.60;99.90;;;;;;5042042;28;20071;-80
2023/04/03 05:04:08;;;;;;;1999.90;999.90;;;1.50;99.90;;;;;;5058901;28;20490;-79
2023/04/03 05:06:34;;;;;;;1999.90;999.90;;;1.40;99.30;;;;;;5052044;28;20025;-80
2023/04/03 05:09:01;;;;;;;1999.90;999.90;;;1.50;98.50;;;;;;5050826;28;20033;-79
2023/04/03 05:11:26;;;;;;;1999.90;999.90;;;1.40;99.90;;;;;;5054259;28;20025;-79
2023/04/03 05:13:52;;;;;;;1999.90;999.90;;;1.40;99.90;;;;;;5051661;28;20041;-78
2023/04/03 05:16:18;;;;;;;1999.90;999.90;;;1.40;99.50;;;;;;5054408;28;20041;-79
2023/04/03 05:18:43;;;;;;;1999.90;999.90;;;1.50;97.10;;;;;;5051342;28;20041;-79
2023/04/03 05:21:10;;;;;;;1999.90;999.90;;;1.50;96.40;;;;;;5033037;28;20156;-79
2023/04/03 05:23:36;;;;;;;1999.90;999.90;;;1.50;97.30;;;;;;5051651;28;20032;-79
2023/04/03 05:26:02;;;;;;;1999.90;999.90;;;1.60;96.90;;;;;;5055635;28;20030;-80
2023/04/03 05:28:27;;;;;;;1999.90;999.90;;;1.60;99.40;;;;;;5060399;28;20056;-80
2023/04/03 05:30:55;;;;;;;1999.90;999.90;;;1.60;96.60;;;;;;5051805;28;20121;-80
2023/04/03 05:33:21;;;;;;;1999.90;999.90;;;1.50;98.50;;;;;;5051328;28;20465;-78
2023/04/03 05:35:47;;;;;;;1999.90;999.90;;;1.40;96.60;;;;;;5047082;28;20045;-79
2023/04/03 05:38:12;;;;;;;1999.90;999.90;;;1.40;97.50;;;;;;5059130;28;20463;-79
2023/04/03 05:40:38;;;;;;;1999.90;999.90;;;1.50;98.20;;;;;;5059339;28;20048;-79
2023/04/03 05:43:06;;;;;;;1999.90;999.90;;;1.60;97.70;;;;;;5060647;28;20086;-80
2023/04/03 05:45:32;;;;;;;1999.90;999.90;;;1.60;97.00;;;;;;5055218;28;20082;-78
2023/04/03 05:47:57;;;;;;;1999.90;999.90;;;1.60;97.20;;;;;;5056090;28;20550;-80
2023/04/03 05:50:23;;;;;;;1999.90;999.90;;;1.60;97.20;;;;;;5053631;28;20033;-79
2023/04/03 05:52:51;;;;;;;1999.90;999.90;;;1.50;98.50;;;;;;5057631;28;20033;-80
2023/04/03 05:55:17;;;;;;;1999.90;999.90;;;1.60;97.90;;;;;;5060477;28;20025;-79
2023/04/03 05:57:42;;;;;;;1999.90;999.90;;;1.60;99.10;;;;;;5058393;28;20046;-78
2023/04/03 06:00:13;;;;;;;1999.90;999.90;;;1.60;96.70;;;;;;5050903;28;20029;-79
2023/04/03 06:02:39;;;;;;;1999.90;999.90;;;1.60;96.40;;;;;;5052588;28;20503;-78
2023/04/03 06:05:06;;;;;;;1999.90;999.90;;;1.70;97.10;;;;;;5048124;28;20061;-78
2023/04/03 06:07:32;;;;;;;1999.90;999.90;;;1.70;98.00;;;;;;5056954;28;20483;-78
2023/04/03 06:09:58;;;;;;;1999.90;999.90;;;1.70;97.30;;;;;;5060514;28;20041;-79
2023/04/03 06:12:24;;;;;;;1999.90;999.90;;;1.60;98.70;;;;;;5060210;28;20033;-79
2023/04/03 06:14:50;;;;;;;1999.90;999.90;;;1.60;95.70;;;;;;5062670;28;20490;-79
2023/04/03 06:17:18;;;;;;;1999.90;999.90;;;1.50;93.70;;;;;;5060862;28;20040;-78
2023/04/03 06:19:44;;;;;;;1999.90;999.90;;;1.60;97.40;;;;;;5060553;28;20084;-79
2023/04/03 06:22:11;;;;;;;1999.90;999.90;;;1.70;97.30;;;;;;5064893;28;20028;-79
2023/04/03 06:24:37;;;;;;;1999.90;999.90;;;1.80;93.60;;;;;;5054496;28;20067;-78
2023/04/03 06:27:03;;;;;;;1999.90;999.90;;;1.90;96.90;;;;;;5058514;28;20040;-79
2023/04/03 06:29:29;;;;;;;1999.90;999.90;;;1.80;96.10;;;;;;5060066;28;20063;-79
2023/04/03 06:31:58;;;;;;;1999.90;999.90;;;1.80;97.00;;;;;;5056551;28;20033;-80
2023/04/03 06:34:24;;;;;;;1999.90;999.90;;;1.90;96.60;;;;;;5055416;28;20021;-78
2023/04/03 06:36:50;;;;;;;1999.90;999.90;;;1.90;95.30;;;;;;5052791;28;20060;-77
2023/04/03 06:39:20;;;;;;;1999.90;999.90;;;1.90;96.70;;;;;;5051800;28;20083;-77
2023/04/03 06:41:46;;;;;;;1999.90;999.90;;;2.00;96.80;;;;;;5052013;28;20159;-77
2023/04/03 06:44:13;;;;;;;1999.90;999.90;;;1.90;94.50;;;;;;5060158;28;20743;-78
2023/04/03 06:46:39;;;;;;;1999.90;999.90;;;2.00;94.80;;;;;;5055995;28;20095;-78
2023/04/03 06:49:07;;;;;;;1999.90;999.90;;;1.90;93.30;;;;;;5053795;28;20039;-77
2023/04/03 06:51:34;;;;;;;1999.90;999.90;;;1.90;93.70;;;;;;5051682;28;20067;-79
2023/04/03 06:54:00;;;;;;;1999.90;999.90;;;1.90;93.10;;;;;;5050759;28;20032;-78
2023/04/03 06:56:27;;;;;;;1999.90;999.90;;;2.00;93.40;;;;;;5058461;28;20495;-78
2023/04/03 06:58:54;;;;;;;1999.90;999.90;;;2.10;98.00;;;;;;5055377;28;20037;-79
2023/04/03 07:01:21;;;;;;;1999.90;999.90;;;2.20;96.60;;;;;;5055017;28;20025;-78
2023/04/03 07:03:48;;;;;;;1999.90;999.90;;;2.00;96.30;;;;;;5051786;28;20090;-77
2023/04/03 07:06:15;;;;;;;1999.90;999.90;;;2.00;93.70;;;;;;5049147;28;20032;-79
2023/04/03 07:08:42;;;;;;;1999.90;999.90;;;2.00;92.90;;;;;;5049379;28;20090;-78
2023/04/03 07:11:08;;;;;;;1999.90;999.90;;;2.10;95.00;;;;;;5053626;28;20665;-78
2023/04/03 07:13:34;;;;;;;1999.90;999.90;;;2.10;92.30;;;;;;5058986;28;20025;-78
2023/04/03 07:16:00;;;;;;;1999.90;999.90;;;2.10;91.50;;;;;;5053240;28;20029;-78
2023/04/03 07:18:27;;;;;;;1999.90;999.90;;;2.20;90.60;;;;;;5053509;28;20029;-77
2023/04/03 07:20:52;;;;;;;1999.90;999.90;;;2.50;91.10;;;;;;5050072;28;20029;-77
2023/04/03 07:23:19;;;;;;;1999.90;999.90;;;2.70;91.20;;;;;;5045374;28;20056;-77
2023/04/03 07:25:50;;;;;;;1999.90;999.90;;;2.80;90.00;;;;;;5047631;28;20486;-78
2023/04/03 07:28:16;;;;;;;1999.90;999.90;;;2.90;87.40;;;;;;5052205;28;20468;-76
2023/04/03 07:30:53;;;;;;;1999.90;999.90;;;2.90;84.10;;;;;;5047252;28;20036;-78
2023/04/03 07:33:21;;;;;;;1999.90;999.90;;;2.90;81.60;;;;;;5054955;28;20048;-76
2023/04/03 07:35:47;;;;;;;1999.90;999.90;;;3.00;81.40;;;;;;5046495;28;20368;-77
2023/04/03 07:38:13;;;;;;;1999.90;999.90;;;3.10;80.20;;;;;;5052743;28;20041;-78
2023/04/03 07:40:39;;;;;;;1999.90;999.90;;;3.30;80.40;;;;;;5049896;28;20060;-80
2023/04/03 07:43:06;;;;;;;1999.90;999.90;;;3.40;80.80;;;;;;5048924;28;20021;-78
2023/04/03 07:45:35;;;;;;;1999.90;999.90;;;3.40;80.10;;;;;;5049578;28;20033;-80
2023/04/03 07:48:01;;;;;;;1999.90;999.90;;;3.60;80.90;;;;;;5048987;28;20126;-81
2023/04/03 07:50:27;;;;;;;1999.90;999.90;;;3.80;79.50;;;;;;5041825;28;20770;-79
2023/04/03 07:52:56;;;;;;;1999.90;999.90;;;3.70;78.10;;;;;;5050883;28;20093;-80
2023/04/03 07:55:22;;;;;;;1999.90;999.90;;;3.60;79.10;;;;;;5049241;28;20028;-80
2023/04/03 07:57:47;;;;;;;1999.90;999.90;;;3.60;78.10;;;;;;5053609;28;20395;-82
2023/04/03 08:00:17;;;;;;;1999.90;999.90;;;3.60;77.00;;;;;;5052607;28;20033;-81
2023/04/03 08:02:53;;;;;;;1999.90;999.90;;;3.50;77.20;;;;;;5054523;28;20033;-83
2023/04/03 08:05:19;;;;;;;1999.90;999.90;;;3.30;78.60;;;;;;5057199;28;20040;-81
2023/04/03 08:07:46;;;;;;;1999.90;999.90;;;3.40;78.60;;;;;;5064451;28;20122;-81
2023/04/03 08:10:15;;;;;;;1999.90;999.90;;;3.20;78.10;;;;;;5055527;28;20037;-81
2023/04/03 08:12:41;;;;;;;1999.90;999.90;;;3.10;79.00;;;;;;5061891;28;20029;-81
2023/04/03 08:15:09;;;;;;;1999.90;999.90;;;3.10;79.00;;;;;;5061966;28;20093;-82
2023/04/03 08:17:36;;;;;;;1999.90;999.90;;;3.20;79.10;;;;;;5060518;28;20520;-80
2023/04/03 08:20:04;;;;;;;1999.90;999.90;;;3.40;79.70;;;;;;5072208;28;20052;-81
2023/04/03 08:22:30;;;;;;;1999.90;999.90;;;3.40;79.50;;;;;;5059915;28;20036;-81
2023/04/03 08:24:56;;;;;;;1999.90;999.90;;;3.70;79.20;;;;;;5064941;28;20084;-80
2023/04/03 08:27:22;;;;;;;1999.90;999.90;;;3.90;78.20;;;;;;5045224;28;20032;-81
2023/04/03 08:29:52;;;;;;;1999.90;999.90;;;3.60;77.40;;;;;;5056806;28;20114;-82
2023/04/03 08:32:19;;;;;;;1999.90;999.90;;;3.80;77.40;;;;;;5056608;28;20183;-82
2023/04/03 08:34:46;;;;;;;1999.90;999.90;;;4.10;76.70;;;;;;5056364;28;20045;-82
2023/04/03 08:37:12;;;;;;;1999.90;999.90;;;4.30;76.00;;;;;;5061627;28;20033;-79
2023/04/03 08:39:37;;;;;;;1999.90;999.90;;;4.70;75.50;;;;;;5050451;28;20135;-81
2023/04/03 08:42:14;;;;;;;1999.90;999.90;;;5.00;74.30;;;;;;5042845;28;20128;-80
2023/04/03 08:44:55;;;;;;;1999.90;999.90;;;5.10;72.80;;;;;;5048489;28;20147;-82
2023/04/03 08:47:25;;;;;;;1999.90;999.90;;;5.30;72.80;;;;;;5048304;28;20028;-82
2023/04/03 08:49:57;;;;;;;1999.90;999.90;;;4.90;73.90;;;;;;5047186;28;20036;-82
2023/04/03 08:52:34;;;;;;;1999.90;999.90;;;5.10;70.80;;;;;;5048478;28;20028;-78
2023/04/03 08:55:17;;;;;;;1999.90;999.90;;;4.90;71.10;;;;;;5049773;28;20040;-84
2023/04/03 08:57:45;;;;;;;1999.90;999.90;;;5.10;71.20;;;;;;5048238;28;20059;-81
2023/04/03 09:00:14;;;;;;;1999.90;999.90;;;5.10;72.40;;;;;;5045414;28;20025;-84
2023/04/03 09:02:55;;;;;;;1999.90;999.90;;;5.40;70.40;;;;;;5050121;28;20090;-85
2023/04/03 09:05:42;;;;;;;1999.90;999.90;;;5.20;68.90;;;;;;5040506;28;20028;-85
2023/04/03 09:08:20;;;;;;;1999.90;999.90;;;5.10;70.30;;;;;;5059050;28;20582;-83
2023/04/03 09:10:46;;;;;;;1999.90;999.90;;;5.10;71.40;;;;;;5045386;28;20116;-82
2023/04/03 09:13:25;;;;;;;1999.90;999.90;;;5.00;70.30;;;;;;5049735;28;20094;-82
2023/04/03 09:15:53;;;;;;;1999.90;999.90;;;5.30;70.00;;;;;;5049595;28;20449;-85
2023/04/03 09:18:40;;;;;;;1999.90;999.90;;;5.20;69.10;;;;;;5044723;28;20473;-89
2023/04/03 09:21:20;;;;;;;1999.90;999.90;;;5.50;69.30;;;;;;5050412;28;20108;-86
2023/04/03 09:23:59;;;;;;;1999.90;999.90;;;5.20;69.10;;;;;;5048794;28;20390;-83
2023/04/03 09:26:31;;;;;;;1999.90;999.90;;;5.30;69.30;;;;;;5052528;28;20147;-86
2023/04/03 09:29:02;;;;;;;1999.90;999.90;;;4.90;69.40;;;;;;5052812;28;20029;-84
2023/04/03 09:31:35;;;;;;;1999.90;999.90;;;5.00;69.20;;;;;;5050611;28;20391;-85
2023/04/03 09:34:05;;;;;;;1999.90;999.90;;;5.00;69.00;;;;;;5049757;28;20052;-83
2023/04/03 09:36:46;;;;;;;1999.90;999.90;;;5.20;68.30;;;;;;5052187;28;20487;-81
2023/04/03 09:39:30;;;;;;;1999.90;999.90;;;5.40;67.60;;;;;;5051831;28;20532;-83
2023/04/03 09:41:58;;;;;;;1999.90;999.90;;;5.80;68.50;;;;;;5034764;28;20029;-84
2023/04/03 09:44:30;;;;;;;1999.90;999.90;;;5.80;65.70;;;;;;5051269;28;20029;-81
2023/04/03 09:46:57;;;;;;;1999.90;999.90;;;5.80;66.50;;;;;;5050080;28;20018;-82
2023/04/03 09:49:23;;;;;;;1999.90;999.90;;;6.10;64.40;;;;;;5052643;28;20032;-87
2023/04/03 09:51:49;;;;;;;1999.90;999.90;;;6.00;62.60;;;;;;5054376;28;20090;-84
2023/04/03 09:54:38;;;;;;;1999.90;999.90;;;5.90;61.40;;;;;;5049446;28;20036;-87
2023/04/03 09:57:13;;;;;;;1999.90;999.90;;;5.80;60.50;;;;;;5046191;28;20028;-88
2023/04/03 09:59:58;;;;;;;1999.90;999.90;;;5.80;62.50;;;;;;5050261;28;20027;-89
2023/04/03 10:02:39;;;;;;;1999.90;999.90;;;5.60;65.60;;;;;;5052417;28;20482;-87
2023/04/03 10:05:35;;;;;;;1999.90;999.90;;;5.30;65.80;;;;;;5051602;28;20033;-85
2023/04/03 10:08:14;;;;;;;1999.90;999.90;;;5.10;65.70;;;;;;5051367;28;20029;-85
2023/04/03 10:10:46;;;;;;;1999.90;999.90;;;5.10;66.30;;;;;;5050166;28;20078;-82
2023/04/03 10:13:19;;;;;;;1999.90;999.90;;;5.10;65.50;;;;;;5049830;28;20509;-85
2023/04/03 10:16:06;;;;;;;1999.90;999.90;;;5.20;66.30;;;;;;5052716;28;20036;-82
2023/04/03 10:18:44;;;;;;;1999.90;999.90;;;5.30;65.20;;;;;;5042722;28;20091;-82
2023/04/03 10:21:36;;;;;;;1999.90;999.90;;;5.60;65.90;;;;;;5050584;28;20060;-88
2023/04/03 10:24:24;;;;;;;1999.90;999.90;;;5.80;63.10;;;;;;5047094;28;20029;-87
2023/04/03 10:26:54;;;;;;;1999.90;999.90;;;5.90;62.00;;;;;;5047295;28;20740;-79
2023/04/03 10:29:20;;;;;;;;;;;6.20;62.00;;;;;;5053866;28;20012;-81
2023/04/03 10:32:12;;;;;;;1999.90;999.90;;;6.30;62.70;;;;;;5053280;28;20389;-79
2023/04/03 10:34:43;;;;;;;1999.90;999.90;;;6.30;64.10;;;;;;5041033;28;20049;-83
2023/04/03 10:37:36;;;;;;;1999.90;999.90;;;6.10;63.10;;;;;;5054157;28;20751;-83
2023/04/03 10:40:22;;;;;;;1999.90;999.90;;;6.20;63.10;;;;;;5055436;28;20045;-80
2023/04/03 10:43:04;;;;;;;1999.90;999.90;;;6.20;60.30;;;;;;5053616;28;20045;-79
2023/04/03 10:45:50;;;;;;;1999.90;999.90;;;6.30;61.10;;;;;;5060636;28;20489;-83
2023/04/03 10:48:37;;;;;;;1999.90;999.90;;;6.70;59.80;;;;;;5051114;28;20058;-81
2023/04/03 10:51:42;;;;;;;1999.90;999.90;;;7.00;58.00;;;;;;5054824;28;20051;-81
2023/04/03 10:54:32;;;;;;;1999.90;999.90;;;7.20;57.30;;;;;;5084462;28;20089;-86
2023/04/03 10:57:07;;;;;;;1999.90;999.90;;;7.50;56.60;;;;;;5055665;28;20033;-82
2023/04/03 10:59:40;;;;;;;1999.90;999.90;;;6.90;58.00;;;;;;5055796;28;20053;-79
2023/04/03 11:02:16;;;;;;;1999.90;999.90;;;7.00;58.70;;;;;;5057997;28;20048;-81
2023/04/03 11:04:44;;;;;;;1999.90;999.90;;;7.00;59.70;;;;;;5048587;28;20037;-84
2023/04/03 11:07:26;;;;;;;1999.90;999.90;;;6.90;59.50;;;;;;5055294;28;20116;-82
2023/04/03 11:10:05;;;;;;;1999.90;999.90;;;6.80;59.20;;;;;;5049942;28;20100;-79
2023/04/03 11:12:43;;;;;;;1999.90;999.90;;;6.80;60.00;;;;;;5051925;28;20025;-82
2023/04/03 11:15:15;;;;;;;1999.90;999.90;;;6.70;60.60;;;;;;5059902;28;20029;-81
2023/04/03 11:17:50;;;;;;;1999.90;999.90;;;6.40;61.10;;;;;;5057536;28;20060;-78
2023/04/03 11:20:32;;;;;;;1999.90;999.90;;;6.10;59.60;;;;;;5054666;28;20025;-81
2023/04/03 11:23:25;;;;;;;1999.90;999.90;;;6.00;61.10;;;;;;5055379;28;20387;-81
2023/04/03 11:25:54;;;;;;;1999.90;999.90;;;5.90;61.10;;;;;;5049300;28;20049;-79
2023/04/03 11:28:20;;;;;;;1999.90;999.90;;;5.90;61.40;;;;;;5051472;28;20399;-84
2023/04/03 11:31:09;;;;;;;1999.90;999.90;;;5.90;63.60;;;;;;5048419;28;20103;-82
2023/04/03 11:33:54;;;;;;;1999.90;999.90;;;5.90;62.60;;;;;;5051054;28;20021;-80
2023/04/03 11:36:26;;;;;;;1999.90;999.90;;;6.10;61.60;;;;;;5048947;28;20022;-81
2023/04/03 11:39:08;;;;;;;1999.90;999.90;;;6.00;62.50;;;;;;5044285;28;20140;-83
2023/04/03 11:41:34;;;;;;;1999.90;999.90;;;6.20;61.50;;;;;;5044561;28;20033;-83
2023/04/03 11:44:38;;;;;;;1999.90;999.90;;;6.00;60.50;;;;;;5056168;28;20036;-80
2023/04/03 11:47:08;;;;;;;1999.90;999.90;;;6.20;60.00;;;;;;5053273;28;20044;-80
2023/04/03 11:50:30;;;;;;;1999.90;999.90;;;6.20;60.50;;;;;;5058421;28;20040;-86
2023/04/03 11:53:19;;;;;;;1999.90;999.90;;;6.20;60.20;;;;;;5025698;28;20032;-83
2023/04/03 11:55:48;;;;;;;1999.90;999.90;;;5.90;62.90;;;;;;5042100;28;20530;-82
2023/04/03 11:58:23;;;;;;;1999.90;999.90;;;5.90;62.40;;;;;;5049491;28;20123;-80
2023/04/03 12:00:59;;;;;;;1999.90;999.90;;;6.20;60.70;;;;;;5047395;28;20086;-86
2023/04/03 12:06:17;;;;;;;1999.90;999.90;;;6.30;60.00;;;;;;5051417;28;20037;-81
2023/04/03 12:08:50;;;;;;;1999.90;999.90;;;6.40;59.40;;;;;;5048025;28;20043;-84
2023/04/03 12:11:31;;;;;;;1999.90;999.90;;;6.40;57.30;;;;;;5050728;28;20044;-81
2023/04/03 12:13:57;;;;;;;1999.90;999.90;;;6.40;56.80;;;;;;5052471;28;20032;-85
2023/04/03 12:16:38;;;;;;;1999.90;999.90;;;6.40;58.60;;;;;;5050004;28;20029;-81
2023/04/03 12:19:31;;;;;;;1999.90;999.90;;;6.30;58.60;;;;;;5049491;28;20032;-80
2023/04/03 12:21:58;;;;;;;1999.90;999.90;;;6.60;56.70;;;;;;5050357;28;20503;-80
2023/04/03 12:24:31;;;;;;;1999.90;999.90;;;6.60;58.00;;;;;;5050527;28;20025;-81